sensor_id;sensor_type;location;lat;lon;timestamp;pressure;altitude;pressure_sealevel;temperature;humidity
21433;BME280;18592;49.708;10.900;2023-10-09T00:00:18;99196.16;;;18.79;50.71
21433;BME280;18592;49.708;10.900;2023-10-09T00:02:38;99197.56;;;18.77;50.83
21433;BME280;18592;49.708;10.900;2023-10-09T00:04:44;99200.06;;;18.73;50.77
21433;BME280;18592;49.708;10.900;2023-10-09T00:06:47;99195.94;;;18.71;50.81
21433;BME280;18592;49.708;10.900;2023-10-09T00:08:49;99200.66;;;18.70;50.80
21433;BME280;18592;49.708;10.900;2023-10-09T00:10:58;99190.16;;;18.67;50.88
21433;BME280;18592;49.708;10.900;2023-10-09T00:13:23;99180.25;;;18.66;50.69
21433;BME280;18592;49.708;10.900;2023-10-09T00:15:34;99186.66;;;18.62;50.97
21433;BME280;18592;49.708;10.900;2023-10-09T00:17:36;99183.31;;;18.60;50.88
21433;BME280;18592;49.708;10.900;2023-10-09T00:19:39;99180.03;;;18.58;51.08
21433;BME280;18592;49.708;10.900;2023-10-09T00:21:45;99171.22;;;18.56;50.92
21433;BME280;18592;49.708;10.900;2023-10-09T00:23:47;99174.28;;;18.54;51.00
21433;BME280;18592;49.708;10.900;2023-10-09T00:25:54;99158.28;;;18.51;51.12
21433;BME280;18592;49.708;10.900;2023-10-09T00:28:28;99159.69;;;18.49;51.20
21433;BME280;18592;49.708;10.900;2023-10-09T00:30:29;99150.88;;;18.47;51.25
21433;BME280;18592;49.708;10.900;2023-10-09T00:32:32;99143.66;;;18.46;51.27
21433;BME280;18592;49.708;10.900;2023-10-09T00:34:42;99136.78;;;18.43;51.54
21433;BME280;18592;49.708;10.900;2023-10-09T00:36:44;99134.84;;;18.44;51.28
21433;BME280;18592;49.708;10.900;2023-10-09T00:38:53;99125.19;;;18.41;51.39
21433;BME280;18592;49.708;10.900;2023-10-09T00:40:55;99129.06;;;18.40;51.58
21433;BME280;18592;49.708;10.900;2023-10-09T00:43:12;99128.00;;;18.36;51.62
21433;BME280;18592;49.708;10.900;2023-10-09T00:45:15;99128.81;;;18.36;51.38
21433;BME280;18592;49.708;10.900;2023-10-09T00:47:28;99123.31;;;18.36;51.55
21433;BME280;18592;49.708;10.900;2023-10-09T00:49:37;99126.34;;;18.35;51.79
21433;BME280;18592;49.708;10.900;2023-10-09T00:51:48;99121.66;;;18.35;52.29
21433;BME280;18592;49.708;10.900;2023-10-09T00:54:02;99127.16;;;18.35;51.59
21433;BME280;18592;49.708;10.900;2023-10-09T00:56:09;99121.66;;;18.35;52.14
21433;BME280;18592;49.708;10.900;2023-10-09T00:58:21;99120.81;;;18.35;51.90
21433;BME280;18592;49.708;10.900;2023-10-09T01:00:32;99119.97;;;18.34;51.91
21433;BME280;18592;49.708;10.900;2023-10-09T01:02:34;99120.81;;;18.35;51.91
21433;BME280;18592;49.708;10.900;2023-10-09T01:04:43;99117.22;;;18.34;51.97
21433;BME280;18592;49.708;10.900;2023-10-09T01:06:46;99107.31;;;18.33;52.09
21433;BME280;18592;49.708;10.900;2023-10-09T01:09:05;99106.47;;;18.33;52.14
21433;BME280;18592;49.708;10.900;2023-10-09T01:11:13;99097.09;;;18.34;52.10
21433;BME280;18592;49.708;10.900;2023-10-09T01:13:26;99096.53;;;18.32;52.24
21433;BME280;18592;49.708;10.900;2023-10-09T01:15:41;99097.38;;;18.32;52.29
21433;BME280;18592;49.708;10.900;2023-10-09T01:17:49;99105.66;;;18.32;52.52
21433;BME280;18592;49.708;10.900;2023-10-09T01:19:51;99100.97;;;18.33;52.16
21433;BME280;18592;49.708;10.900;2023-10-09T01:22:05;99097.38;;;18.32;52.31
21433;BME280;18592;49.708;10.900;2023-10-09T01:24:17;99086.31;;;18.32;52.42
21433;BME280;18592;49.708;10.900;2023-10-09T01:26:21;99079.19;;;18.31;52.58
21433;BME280;18592;49.708;10.900;2023-10-09T01:28:24;99081.94;;;18.31;52.47
21433;BME280;18592;49.708;10.900;2023-10-09T01:30:27;99078.06;;;18.32;52.55
21433;BME280;18592;49.708;10.900;2023-10-09T01:32:29;99074.47;;;18.32;52.81
21433;BME280;18592;49.708;10.900;2023-10-09T01:34:32;99071.69;;;18.32;52.75
21433;BME280;18592;49.708;10.900;2023-10-09T01:36:44;99066.47;;;18.30;52.64
21433;BME280;18592;49.708;10.900;2023-10-09T01:38:50;99069.25;;;18.30;52.88
21433;BME280;18592;49.708;10.900;2023-10-09T01:40:52;99074.75;;;18.30;52.72
21433;BME280;18592;49.708;10.900;2023-10-09T01:42:57;99065.38;;;18.31;52.80
21433;BME280;18592;49.708;10.900;2023-10-09T01:44:58;99077.00;;;18.28;52.89
21433;BME280;18592;49.708;10.900;2023-10-09T01:47:11;99070.66;;;18.28;52.77
21433;BME280;18592;49.708;10.900;2023-10-09T01:49:15;99071.47;;;18.28;52.82
21433;BME280;18592;49.708;10.900;2023-10-09T01:51:23;99061.53;;;18.27;53.00
21433;BME280;18592;49.708;10.900;2023-10-09T01:53:24;99068.72;;;18.28;52.76
21433;BME280;18592;49.708;10.900;2023-10-09T01:55:31;99057.38;;;18.30;52.76
21433;BME280;18592;49.708;10.900;2023-10-09T01:57:42;99047.47;;;18.29;53.01
21433;BME280;18592;49.708;10.900;2023-10-09T01:59:46;99045.50;;;18.29;52.97
21433;BME280;18592;49.708;10.900;2023-10-09T02:01:50;99044.69;;;18.29;53.07
21433;BME280;18592;49.708;10.900;2023-10-09T02:04:01;99037.53;;;18.28;52.79
21433;BME280;18592;49.708;10.900;2023-10-09T02:06:09;99039.75;;;18.26;53.16
21433;BME280;18592;49.708;10.900;2023-10-09T02:08:31;99034.22;;;18.26;53.13
21433;BME280;18592;49.708;10.900;2023-10-09T02:10:36;99040.03;;;18.24;53.14
21433;BME280;18592;49.708;10.900;2023-10-09T02:12:40;99040.59;;;18.26;53.12
21433;BME280;18592;49.708;10.900;2023-10-09T02:14:42;99040.84;;;18.25;53.20
21433;BME280;18592;49.708;10.900;2023-10-09T02:16:48;99041.16;;;18.23;53.41
21433;BME280;18592;49.708;10.900;2023-10-09T02:19:10;99038.41;;;18.23;53.22
21433;BME280;18592;49.708;10.900;2023-10-09T02:21:32;99036.72;;;18.22;53.42
21433;BME280;18592;49.708;10.900;2023-10-09T02:23:43;99032.34;;;18.21;53.62
21433;BME280;18592;49.708;10.900;2023-10-09T02:25:58;99038.97;;;18.20;53.88
21433;BME280;18592;49.708;10.900;2023-10-09T02:28:03;99037.88;;;18.21;53.38
21433;BME280;18592;49.708;10.900;2023-10-09T02:30:07;99036.72;;;18.22;53.38
21433;BME280;18592;49.708;10.900;2023-10-09T02:32:31;99039.22;;;18.24;53.51
21433;BME280;18592;49.708;10.900;2023-10-09T02:34:35;99045.84;;;18.23;53.54
21433;BME280;18592;49.708;10.900;2023-10-09T02:36:39;99045.00;;;18.22;53.39
21433;BME280;18592;49.708;10.900;2023-10-09T02:38:43;99043.38;;;18.21;53.39
21433;BME280;18592;49.708;10.900;2023-10-09T02:40:45;99043.38;;;18.21;53.53
21433;BME280;18592;49.708;10.900;2023-10-09T02:43:07;99045.31;;;18.21;53.54
21433;BME280;18592;49.708;10.900;2023-10-09T02:45:14;99039.50;;;18.22;53.59
21433;BME280;18592;49.708;10.900;2023-10-09T02:47:26;99043.09;;;18.23;53.31
21433;BME280;18592;49.708;10.900;2023-10-09T02:49:40;99051.38;;;18.23;53.32
21433;BME280;18592;49.708;10.900;2023-10-09T02:51:42;99049.44;;;18.23;53.36
21433;BME280;18592;49.708;10.900;2023-10-09T02:53:43;99055.22;;;18.22;53.42
21433;BME280;18592;49.708;10.900;2023-10-09T02:55:45;99057.19;;;18.21;53.31
21433;BME280;18592;49.708;10.900;2023-10-09T02:58:06;99053.59;;;18.21;53.28
21433;BME280;18592;49.708;10.900;2023-10-09T03:00:12;99051.72;;;18.16;53.40
21433;BME280;18592;49.708;10.900;2023-10-09T03:02:21;99038.19;;;18.15;53.27
21433;BME280;18592;49.708;10.900;2023-10-09T03:04:26;99041.78;;;18.15;53.39
21433;BME280;18592;49.708;10.900;2023-10-09T03:06:32;99042.06;;;18.14;53.25
21433;BME280;18592;49.708;10.900;2023-10-09T03:08:37;99036.00;;;18.12;53.31
21433;BME280;18592;49.708;10.900;2023-10-09T03:10:40;99037.13;;;18.11;53.50
21433;BME280;18592;49.708;10.900;2023-10-09T03:12:41;99034.34;;;18.11;53.20
21433;BME280;18592;49.708;10.900;2023-10-09T03:15:01;99034.63;;;18.09;53.09
21433;BME280;18592;49.708;10.900;2023-10-09T03:17:07;99038.00;;;18.06;53.27
21433;BME280;18592;49.708;10.900;2023-10-09T03:19:16;99034.13;;;18.02;53.36
21433;BME280;18592;49.708;10.900;2023-10-09T03:21:18;99030.84;;;18.00;53.20
21433;BME280;18592;49.708;10.900;2023-10-09T03:23:20;99027.25;;;18.00;53.15
21433;BME280;18592;49.708;10.900;2023-10-09T03:25:22;99028.66;;;17.97;53.18
21433;BME280;18592;49.708;10.900;2023-10-09T03:27:26;99019.03;;;17.95;53.29
21433;BME280;18592;49.708;10.900;2023-10-09T03:29:28;99018.50;;;17.93;53.32
21433;BME280;18592;49.708;10.900;2023-10-09T03:31:29;99014.38;;;17.90;53.20
21433;BME280;18592;49.708;10.900;2023-10-09T03:33:34;99003.91;;;17.87;53.35
21433;BME280;18592;49.708;10.900;2023-10-09T03:35:37;99008.91;;;17.85;53.04
21433;BME280;18592;49.708;10.900;2023-10-09T03:37:40;99000.91;;;17.84;53.46
21433;BME280;18592;49.708;10.900;2023-10-09T03:39:42;99013.06;;;17.83;53.31
21433;BME280;18592;49.708;10.900;2023-10-09T03:41:44;99001.19;;;17.82;53.39
21433;BME280;18592;49.708;10.900;2023-10-09T03:43:48;99018.31;;;17.79;53.41
21433;BME280;18592;49.708;10.900;2023-10-09T03:45:50;99012.25;;;17.77;53.34
21433;BME280;18592;49.708;10.900;2023-10-09T03:47:55;99010.06;;;17.74;53.32
21433;BME280;18592;49.708;10.900;2023-10-09T03:50:22;99004.31;;;17.70;53.35
21433;BME280;18592;49.708;10.900;2023-10-09T03:52:36;99004.88;;;17.67;53.45
21433;BME280;18592;49.708;10.900;2023-10-09T03:54:38;99007.91;;;17.66;53.45
21433;BME280;18592;49.708;10.900;2023-10-09T03:56:40;99002.69;;;17.64;53.43
21433;BME280;18592;49.708;10.900;2023-10-09T03:58:43;99000.50;;;17.61;53.43
21433;BME280;18592;49.708;10.900;2023-10-09T04:00:46;99000.28;;;17.58;53.49
21433;BME280;18592;49.708;10.900;2023-10-09T04:02:48;98998.63;;;17.57;53.45
21433;BME280;18592;49.708;10.900;2023-10-09T04:04:52;99000.84;;;17.55;53.41
21433;BME280;18592;49.708;10.900;2023-10-09T04:06:54;99001.38;;;17.52;53.10
21433;BME280;18592;49.708;10.900;2023-10-09T04:08:55;99003.59;;;17.50;53.10
21433;BME280;18592;49.708;10.900;2023-10-09T04:10:57;98996.72;;;17.47;53.41
21433;BME280;18592;49.708;10.900;2023-10-09T04:13:05;98988.19;;;17.44;53.30
21433;BME280;18592;49.708;10.900;2023-10-09T04:15:12;98993.47;;;17.40;53.30
21433;BME280;18592;49.708;10.900;2023-10-09T04:17:16;98988.22;;;17.39;53.32
21433;BME280;18592;49.708;10.900;2023-10-09T04:19:37;98985.50;;;17.34;53.26
21433;BME280;18592;49.708;10.900;2023-10-09T04:21:49;98995.16;;;17.31;53.20
21433;BME280;18592;49.708;10.900;2023-10-09T04:23:50;98978.91;;;17.30;53.27
21433;BME280;18592;49.708;10.900;2023-10-09T04:26:01;98979.78;;;17.25;53.17
21433;BME280;18592;49.708;10.900;2023-10-09T04:28:11;98982.25;;;17.22;53.24
21433;BME280;18592;49.708;10.900;2023-10-09T04:30:21;98981.72;;;17.20;53.16
21433;BME280;18592;49.708;10.900;2023-10-09T04:32:28;98973.72;;;17.18;53.09
21433;BME280;18592;49.708;10.900;2023-10-09T04:34:30;98974.31;;;17.15;53.29
21433;BME280;18592;49.708;10.900;2023-10-09T04:36:41;98981.22;;;17.12;53.24
21433;BME280;18592;49.708;10.900;2023-10-09T04:38:54;98990.31;;;17.08;53.15
21433;BME280;18592;49.708;10.900;2023-10-09T04:41:06;98995.56;;;17.04;53.19
21433;BME280;18592;49.708;10.900;2023-10-09T04:43:09;98988.69;;;17.02;53.18
21433;BME280;18592;49.708;10.900;2023-10-09T04:45:21;98975.47;;;16.99;53.12
21433;BME280;18592;49.708;10.900;2023-10-09T04:47:43;98977.97;;;16.95;53.14
21433;BME280;18592;49.708;10.900;2023-10-09T04:50:00;98989.56;;;16.92;53.03
21433;BME280;18592;49.708;10.900;2023-10-09T04:52:01;98985.16;;;16.91;53.23
21433;BME280;18592;49.708;10.900;2023-10-09T04:54:08;98981.59;;;16.86;53.05
21433;BME280;18592;49.708;10.900;2023-10-09T04:56:17;98982.97;;;16.83;53.07
21433;BME280;18592;49.708;10.900;2023-10-09T04:58:22;98982.97;;;16.83;53.11
21433;BME280;18592;49.708;10.900;2023-10-09T05:00:28;98997.28;;;16.80;53.14
21433;BME280;18592;49.708;10.900;2023-10-09T05:02:30;98996.75;;;16.78;53.28
21433;BME280;18592;49.708;10.900;2023-10-09T05:04:47;98993.47;;;16.76;53.34
21433;BME280;18592;49.708;10.900;2023-10-09T05:06:52;98990.97;;;16.75;53.22
21433;BME280;18592;49.708;10.900;2023-10-09T05:08:59;98994.84;;;16.74;53.36
21433;BME280;18592;49.708;10.900;2023-10-09T05:11:09;98997.88;;;16.72;53.52
21433;BME280;18592;49.708;10.900;2023-10-09T05:13:36;98981.94;;;16.69;53.34
21433;BME280;18592;49.708;10.900;2023-10-09T05:15:42;98984.13;;;16.67;53.47
21433;BME280;18592;49.708;10.900;2023-10-09T05:17:47;98984.41;;;16.66;53.47
21433;BME280;18592;49.708;10.900;2023-10-09T05:19:57;98988.56;;;16.63;53.63
21433;BME280;18592;49.708;10.900;2023-10-09T05:22:19;98993.50;;;16.61;53.56
21433;BME280;18592;49.708;10.900;2023-10-09T05:24:45;98985.81;;;16.58;53.45
21433;BME280;18592;49.708;10.900;2023-10-09T05:26:49;98988.84;;;16.57;53.53
21433;BME280;18592;49.708;10.900;2023-10-09T05:28:56;98998.22;;;16.56;53.49
21433;BME280;18592;49.708;10.900;2023-10-09T05:30:59;98989.41;;;16.54;53.44
21433;BME280;18592;49.708;10.900;2023-10-09T05:33:08;98988.28;;;16.49;53.44
21433;BME280;18592;49.708;10.900;2023-10-09T05:35:28;99001.50;;;16.47;53.55
21433;BME280;18592;49.708;10.900;2023-10-09T05:37:42;98995.72;;;16.44;53.59
21433;BME280;18592;49.708;10.900;2023-10-09T05:39:47;99000.13;;;16.40;53.60
21433;BME280;18592;49.708;10.900;2023-10-09T05:42:04;99003.16;;;16.38;53.64
21433;BME280;18592;49.708;10.900;2023-10-09T05:44:11;99000.41;;;16.38;53.42
21433;BME280;18592;49.708;10.900;2023-10-09T05:46:37;98998.22;;;16.35;53.69
21433;BME280;18592;49.708;10.900;2023-10-09T05:48:38;98994.09;;;16.33;53.77
21433;BME280;18592;49.708;10.900;2023-10-09T05:50:40;98988.59;;;16.33;53.66
21433;BME280;18592;49.708;10.900;2023-10-09T05:53:02;98992.44;;;16.32;53.67
21433;BME280;18592;49.708;10.900;2023-10-09T05:55:07;99000.16;;;16.30;53.77
21433;BME280;18592;49.708;10.900;2023-10-09T05:57:20;99005.66;;;16.30;53.93
21433;BME280;18592;49.708;10.900;2023-10-09T06:00:04;98999.88;;;16.26;53.87
21433;BME280;18592;49.708;10.900;2023-10-09T06:02:24;99000.16;;;16.25;53.97
21433;BME280;18592;49.708;10.900;2023-10-09T06:05:03;99010.06;;;16.26;54.07
21433;BME280;18592;49.708;10.900;2023-10-09T06:07:21;99000.16;;;16.25;54.02
21433;BME280;18592;49.708;10.900;2023-10-09T06:09:42;99003.44;;;16.27;54.22
21433;BME280;18592;49.708;10.900;2023-10-09T06:11:59;98995.47;;;16.25;54.17
21433;BME280;18592;49.708;10.900;2023-10-09T06:14:22;98999.88;;;16.26;54.25
21433;BME280;18592;49.708;10.900;2023-10-09T06:16:27;98996.31;;;16.26;54.11
21433;BME280;18592;49.708;10.900;2023-10-09T06:18:40;98996.31;;;16.26;54.00
21433;BME280;18592;49.708;10.900;2023-10-09T06:20:48;98995.47;;;16.25;54.32
21433;BME280;18592;49.708;10.900;2023-10-09T06:23:09;99000.16;;;16.25;54.28
21433;BME280;18592;49.708;10.900;2023-10-09T06:25:17;99005.94;;;16.23;54.44
21433;BME280;18592;49.708;10.900;2023-10-09T06:27:20;99006.78;;;16.24;54.60
21433;BME280;18592;49.708;10.900;2023-10-09T06:29:31;99010.06;;;16.26;54.49
21433;BME280;18592;49.708;10.900;2023-10-09T06:31:45;99002.91;;;16.25;54.73
21433;BME280;18592;49.708;10.900;2023-10-09T06:33:59;99008.94;;;16.27;54.70
21433;BME280;18592;49.708;10.900;2023-10-09T06:36:17;99019.94;;;16.27;54.81
21433;BME280;18592;49.708;10.900;2023-10-09T06:38:20;99006.47;;;16.25;54.87
21433;BME280;18592;49.708;10.900;2023-10-09T06:40:25;99027.41;;;16.26;55.00
21433;BME280;18592;49.708;10.900;2023-10-09T06:42:45;99016.66;;;16.30;54.91
21433;BME280;18592;49.708;10.900;2023-10-09T06:44:54;99015.03;;;16.29;55.03
21433;BME280;18592;49.708;10.900;2023-10-09T06:46:55;99005.38;;;16.31;54.96
21433;BME280;18592;49.708;10.900;2023-10-09T06:48:59;99009.22;;;16.35;55.08
21433;BME280;18592;49.708;10.900;2023-10-09T06:51:13;99011.13;;;16.40;54.98
21433;BME280;18592;49.708;10.900;2023-10-09T06:53:27;99015.00;;;16.44;54.89
21433;BME280;18592;49.708;10.900;2023-10-09T06:55:53;99021.31;;;16.44;55.13
21433;BME280;18592;49.708;10.900;2023-10-09T06:58:06;99005.91;;;16.43;55.31
21433;BME280;18592;49.708;10.900;2023-10-09T07:00:11;99017.47;;;16.45;55.15
21433;BME280;18592;49.708;10.900;2023-10-09T07:02:32;99018.28;;;16.46;55.34
21433;BME280;18592;49.708;10.900;2023-10-09T07:04:47;99018.84;;;16.48;55.55
21433;BME280;18592;49.708;10.900;2023-10-09T07:06:49;99023.25;;;16.49;55.75
21433;BME280;18592;49.708;10.900;2023-10-09T07:08:53;99012.81;;;16.56;55.62
21433;BME280;18592;49.708;10.900;2023-10-09T07:11:17;99016.06;;;16.68;55.46
21433;BME280;18592;49.708;10.900;2023-10-09T07:13:37;99022.66;;;16.77;55.49
21433;BME280;18592;49.708;10.900;2023-10-09T07:15:42;99024.03;;;16.85;55.67
21433;BME280;18592;49.708;10.900;2023-10-09T07:18:03;99017.91;;;16.93;55.87
21433;BME280;18592;49.708;10.900;2023-10-09T07:20:20;99028.09;;;16.97;55.66
21433;BME280;18592;49.708;10.900;2023-10-09T07:22:46;99027.22;;;17.07;55.65
21433;BME280;18592;49.708;10.900;2023-10-09T07:24:55;99035.47;;;17.17;55.53
21433;BME280;18592;49.708;10.900;2023-10-09T07:26:57;99039.53;;;17.30;55.89
21433;BME280;18592;49.708;10.900;2023-10-09T07:29:07;99042.25;;;17.40;55.83
21433;BME280;18592;49.708;10.900;2023-10-09T07:31:19;99042.72;;;17.52;55.74
21433;BME280;18592;49.708;10.900;2023-10-09T07:33:28;99038.28;;;17.61;55.47
21433;BME280;18592;49.708;10.900;2023-10-09T07:35:49;99042.63;;;17.72;55.44
21433;BME280;18592;49.708;10.900;2023-10-09T07:37:54;99051.38;;;17.84;55.69
21433;BME280;18592;49.708;10.900;2023-10-09T07:39:55;99043.03;;;17.94;55.65
21433;BME280;18592;49.708;10.900;2023-10-09T07:42:04;99048.47;;;18.04;55.54
21433;BME280;18592;49.708;10.900;2023-10-09T07:44:28;99053.09;;;18.14;55.36
21433;BME280;18592;49.708;10.900;2023-10-09T07:46:37;99050.84;;;18.21;55.33
21433;BME280;18592;49.708;10.900;2023-10-09T07:49:01;99039.44;;;18.27;55.27
21433;BME280;18592;49.708;10.900;2023-10-09T07:51:13;99040.25;;;18.33;54.97
21433;BME280;18592;49.708;10.900;2023-10-09T07:53:17;99036.59;;;18.37;54.71
21433;BME280;18592;49.708;10.900;2023-10-09T07:55:41;99040.44;;;18.42;54.83
21433;BME280;18592;49.708;10.900;2023-10-09T07:57:50;99038.22;;;18.44;54.62
21433;BME280;18592;49.708;10.900;2023-10-09T07:59:53;99045.66;;;18.48;54.60
21433;BME280;18592;49.708;10.900;2023-10-09T08:02:13;99045.06;;;18.51;55.00
21433;BME280;18592;49.708;10.900;2023-10-09T08:04:15;99050.03;;;18.54;55.21
21433;BME280;18592;49.708;10.900;2023-10-09T08:06:17;99057.44;;;18.59;55.20
21433;BME280;18592;49.708;10.900;2023-10-09T08:08:38;99059.00;;;18.65;55.09
21433;BME280;18592;49.708;10.900;2023-10-09T08:11:02;99055.09;;;18.71;55.34
21433;BME280;18592;49.708;10.900;2023-10-09T08:13:22;99049.50;;;18.76;55.23
21433;BME280;18592;49.708;10.900;2023-10-09T08:15:42;99064.09;;;18.81;55.43
21433;BME280;18592;49.708;10.900;2023-10-09T08:17:55;99062.13;;;18.87;55.37
21433;BME280;18592;49.708;10.900;2023-10-09T08:20:15;99064.28;;;18.90;55.51
21433;BME280;18592;49.708;10.900;2023-10-09T08:22:26;99082.44;;;18.96;55.75
21433;BME280;18592;49.708;10.900;2023-10-09T08:24:30;99076.03;;;19.00;55.95
21433;BME280;18592;49.708;10.900;2023-10-09T08:26:43;99069.63;;;19.05;55.86
21433;BME280;18592;49.708;10.900;2023-10-09T08:28:49;99072.13;;;19.07;55.95
21433;BME280;18592;49.708;10.900;2023-10-09T08:30:51;99079.81;;;19.10;56.00
21433;BME280;18592;49.708;10.900;2023-10-09T08:32:56;99078.41;;;19.12;56.49
21433;BME280;18592;49.708;10.900;2023-10-09T08:35:07;99077.53;;;19.17;56.25
21433;BME280;18592;49.708;10.900;2023-10-09T08:37:29;99069.16;;;19.22;56.11
21433;BME280;18592;49.708;10.900;2023-10-09T08:39:31;99072.47;;;19.24;56.25
21433;BME280;18592;49.708;10.900;2023-10-09T08:41:38;99075.16;;;19.29;56.49
21433;BME280;18592;49.708;10.900;2023-10-09T08:43:41;99077.63;;;19.30;56.73
21433;BME280;18592;49.708;10.900;2023-10-09T08:45:47;99070.69;;;19.33;57.17
21433;BME280;18592;49.708;10.900;2023-10-09T08:47:49;99076.44;;;19.36;57.41
21433;BME280;18592;49.708;10.900;2023-10-09T08:49:54;99068.44;;;19.40;57.51
21433;BME280;18592;49.708;10.900;2023-10-09T08:51:55;99075.31;;;19.42;57.51
21433;BME280;18592;49.708;10.900;2023-10-09T08:53:57;99074.41;;;19.47;57.90
21433;BME280;18592;49.708;10.900;2023-10-09T08:55:59;99067.47;;;19.49;57.88
21433;BME280;18592;49.708;10.900;2023-10-09T09:19:30;99096.06;;;20.70;55.02
21433;BME280;18592;49.708;10.900;2023-10-09T09:21:34;99090.28;;;20.53;55.55
21433;BME280;18592;49.708;10.900;2023-10-09T09:23:57;99083.84;;;20.39;55.67
21433;BME280;18592;49.708;10.900;2023-10-09T09:25:59;99091.22;;;20.30;55.95
21433;BME280;18592;49.708;10.900;2023-10-09T09:28:03;99092.41;;;20.24;56.06
21433;BME280;18592;49.708;10.900;2023-10-09T09:30:25;99079.44;;;20.19;56.67
21433;BME280;18592;49.708;10.900;2023-10-09T09:32:36;99085.88;;;20.15;56.79
21433;BME280;18592;49.708;10.900;2023-10-09T09:34:46;99093.69;;;20.13;56.63
21433;BME280;18592;49.708;10.900;2023-10-09T09:36:51;99097.28;;;20.13;56.87
21433;BME280;18592;49.708;10.900;2023-10-09T09:38:57;99109.47;;;20.12;57.01
21433;BME280;18592;49.708;10.900;2023-10-09T09:41:03;99101.97;;;20.13;57.44
21433;BME280;18592;49.708;10.900;2023-10-09T09:43:09;99102.50;;;20.15;57.36
21433;BME280;18592;49.708;10.900;2023-10-09T09:45:19;99106.63;;;20.17;57.55
21433;BME280;18592;49.708;10.900;2023-10-09T09:47:25;99115.44;;;20.19;58.08
21433;BME280;18592;49.708;10.900;2023-10-09T09:49:29;99108.22;;;20.23;57.86
21433;BME280;18592;49.708;10.900;2023-10-09T09:51:33;99111.19;;;20.27;58.03
21433;BME280;18592;49.708;10.900;2023-10-09T09:53:39;99107.84;;;20.30;57.61
21433;BME280;18592;49.708;10.900;2023-10-09T09:55:46;99115.81;;;20.32;58.05
21433;BME280;18592;49.708;10.900;2023-10-09T09:57:53;99118.84;;;20.35;57.83
21433;BME280;18592;49.708;10.900;2023-10-09T09:59:56;99122.13;;;20.37;58.09
21433;BME280;18592;49.708;10.900;2023-10-09T10:01:59;99108.59;;;20.36;58.13
21433;BME280;18592;49.708;10.900;2023-10-09T10:04:14;99118.22;;;20.38;58.32
21433;BME280;18592;49.708;10.900;2023-10-09T10:06:22;99116.50;;;20.42;58.20
21433;BME280;18592;49.708;10.900;2023-10-09T10:08:28;99110.03;;;20.47;58.31
21433;BME280;18592;49.708;10.900;2023-10-09T10:10:38;99092.81;;;20.50;58.04
21433;BME280;18592;49.708;10.900;2023-10-09T10:12:50;99102.19;;;20.54;58.09
21433;BME280;18592;49.708;10.900;2023-10-09T10:15:02;99088.34;;;20.54;58.18
21433;BME280;18592;49.708;10.900;2023-10-09T10:17:11;99110.50;;;20.54;57.67
21433;BME280;18592;49.708;10.900;2023-10-09T10:19:20;99110.69;;;20.57;57.71
21433;BME280;18592;49.708;10.900;2023-10-09T10:21:23;99111.22;;;20.59;57.80
21433;BME280;18592;49.708;10.900;2023-10-09T10:23:33;99102.91;;;20.59;57.48
21433;BME280;18592;49.708;10.900;2023-10-09T10:25:39;99104.56;;;20.60;57.55
21433;BME280;18592;49.708;10.900;2023-10-09T10:27:43;99089.59;;;20.61;57.80
21433;BME280;18592;49.708;10.900;2023-10-09T10:32:11;99079.31;;;20.62;57.72
21433;BME280;18592;49.708;10.900;2023-10-09T10:34:16;99056.34;;;20.61;57.44
21433;BME280;18592;49.708;10.900;2023-10-09T10:36:24;99059.03;;;20.66;57.50
21433;BME280;18592;49.708;10.900;2023-10-09T10:38:33;99054.50;;;20.70;57.83
21433;BME280;18592;49.708;10.900;2023-10-09T10:40:51;99050.13;;;20.69;57.34
21433;BME280;18592;49.708;10.900;2023-10-09T10:42:58;99049.19;;;20.74;57.37
21433;BME280;18592;49.708;10.900;2023-10-09T10:45:18;99050.53;;;20.76;57.48
21433;BME280;18592;49.708;10.900;2023-10-09T10:47:39;99037.69;;;20.80;57.26
21433;BME280;18592;49.708;10.900;2023-10-09T10:49:43;99040.69;;;20.84;57.45
21433;BME280;18592;49.708;10.900;2023-10-09T10:51:46;99045.00;;;20.90;57.35
21433;BME280;18592;49.708;10.900;2023-10-09T10:53:53;99037.22;;;20.92;57.32
21433;BME280;18592;49.708;10.900;2023-10-09T10:56:15;99041.50;;;20.98;57.42
21433;BME280;18592;49.708;10.900;2023-10-09T10:58:17;99043.06;;;21.04;57.39
21433;BME280;18592;49.708;10.900;2023-10-09T11:00:27;99036.84;;;21.12;57.04
21433;BME280;18592;49.708;10.900;2023-10-09T11:02:47;99034.25;;;21.16;57.21
21433;BME280;18592;49.708;10.900;2023-10-09T11:04:50;99041.34;;;21.22;57.30
21433;BME280;18592;49.708;10.900;2023-10-09T11:07:12;99047.91;;;21.26;57.00
21433;BME280;18592;49.708;10.900;2023-10-09T11:09:26;99051.09;;;21.33;56.90
21433;BME280;18592;49.708;10.900;2023-10-09T11:11:53;99047.69;;;21.36;57.17
21433;BME280;18592;49.708;10.900;2023-10-09T11:14:13;99055.91;;;21.41;57.01
21433;BME280;18592;49.708;10.900;2023-10-09T11:16:26;99067.53;;;21.43;57.24
21433;BME280;18592;49.708;10.900;2023-10-09T11:18:39;99084.69;;;21.45;57.32
21433;BME280;18592;49.708;10.900;2023-10-09T11:20:53;99085.72;;;21.49;57.27
21433;BME280;18592;49.708;10.900;2023-10-09T11:23:04;99060.13;;;21.52;57.01
21433;BME280;18592;49.708;10.900;2023-10-09T11:25:12;99029.00;;;21.55;57.29
21433;BME280;18592;49.708;10.900;2023-10-09T11:27:13;99006.69;;;21.60;56.87
21433;BME280;18592;49.708;10.900;2023-10-09T11:29:21;99032.16;;;21.62;56.85
21433;BME280;18592;49.708;10.900;2023-10-09T11:42:30;99095.72;;;22.35;55.23
21433;BME280;18592;49.708;10.900;2023-10-09T11:44:50;99108.03;;;22.21;55.95
21433;BME280;18592;49.708;10.900;2023-10-09T11:47:01;99106.50;;;22.14;56.18
21433;BME280;18592;49.708;10.900;2023-10-09T11:49:25;99111.66;;;22.07;56.23
21433;BME280;18592;49.708;10.900;2023-10-09T11:51:48;99121.13;;;22.06;56.30